createdAt,value
2018-09-01T00:01:10.534Z,1004.05
2018-09-01T00:02:16.750Z,1004.12
2018-09-01T00:03:23.074Z,1004.13
2018-09-01T00:04:28.900Z,1004.09
2018-09-01T00:05:35.212Z,1004.11
2018-09-01T00:06:41.551Z,1004.09
2018-09-01T00:07:47.871Z,1004.10
2018-09-01T00:08:54.677Z,1004.05
2018-09-01T00:10:01.012Z,1004.04
2018-09-01T00:11:06.863Z,1004.05
2018-09-01T00:12:13.168Z,1004.13
2018-09-01T00:13:19.492Z,1004.10
2018-09-01T00:14:25.808Z,1004.06
2018-09-01T00:15:32.133Z,1004.08
2018-09-01T00:16:38.962Z,1004.01
2018-09-01T00:17:44.779Z,1004.02
2018-09-01T00:18:51.593Z,1004.03
2018-09-01T00:19:57.912Z,1004.05
2018-09-01T00:21:03.742Z,1004.03
2018-09-01T00:22:10.071Z,1004.04
2018-09-01T00:23:16.389Z,1004.03
2018-09-01T00:24:23.214Z,1004.03
2018-09-01T00:25:29.042Z,1004.07
2018-09-01T00:26:35.366Z,1004.03
2018-09-01T00:27:41.687Z,1004.07
2018-09-01T00:28:48.004Z,1004.05
2018-09-01T00:29:54.327Z,1004.05
2018-09-01T00:31:00.648Z,1004.08
2018-09-01T00:32:07.459Z,1004.07
2018-09-01T00:33:13.295Z,1004.10
2018-09-01T00:34:20.105Z,1004.14
2018-09-01T00:35:26.417Z,1004.16
2018-09-01T00:36:32.256Z,1004.19
2018-09-01T00:37:38.581Z,1004.22
2018-09-01T00:38:44.883Z,1004.19
2018-09-01T00:39:51.211Z,1004.15
2018-09-01T00:40:57.530Z,1004.14
2018-09-01T00:42:03.846Z,1004.14
2018-09-01T00:43:10.675Z,1004.15
2018-09-01T00:44:16.490Z,1004.20
2018-09-01T00:45:23.314Z,1004.20
2018-09-01T00:46:29.142Z,1004.13
2018-09-01T00:47:35.943Z,1004.18
2018-09-01T00:48:41.763Z,1004.14
2018-09-01T00:49:49.091Z,1004.15
2018-09-01T00:50:54.893Z,1004.14
2018-09-01T00:52:01.217Z,1004.19
2018-09-01T00:53:07.052Z,1004.16
2018-09-01T00:54:13.858Z,1004.19
2018-09-01T00:55:19.695Z,1004.24
2018-09-01T00:56:26.488Z,1004.26
2018-09-01T00:57:32.313Z,1004.29
2018-09-01T00:58:39.132Z,1004.27
2018-09-01T00:59:45.447Z,1004.32
2018-09-01T01:00:51.259Z,1004.31
2018-09-01T01:01:57.666Z,1004.33
2018-09-01T01:03:03.892Z,1004.32
2018-09-01T01:04:10.200Z,1004.30
2018-09-01T01:05:16.511Z,1004.30
2018-09-01T01:06:22.829Z,1004.24
2018-09-01T01:07:29.151Z,1004.24
2018-09-01T01:08:35.954Z,1004.22
2018-09-01T01:09:41.760Z,1004.24
2018-09-01T01:10:48.059Z,1004.23
2018-09-01T01:11:54.870Z,1004.22
2018-09-01T01:13:01.272Z,1004.21
2018-09-01T01:14:06.996Z,1004.24
2018-09-01T01:15:13.308Z,1004.23
2018-09-01T01:16:19.621Z,1004.25
2018-09-01T01:17:25.917Z,1004.25
2018-09-01T01:18:32.234Z,1004.22
2018-09-01T01:19:38.533Z,1004.22
2018-09-01T01:20:44.844Z,1004.24
2018-09-01T01:21:51.163Z,1004.18
2018-09-01T01:22:57.477Z,1004.20
2018-09-01T01:24:03.764Z,1004.25
2018-09-01T01:25:10.067Z,1004.17
2018-09-01T01:26:16.387Z,1004.21
2018-09-01T01:27:22.679Z,1004.19
2018-09-01T01:28:29.504Z,1004.22
2018-09-01T01:29:35.795Z,1004.15
2018-09-01T01:30:41.615Z,1004.18
2018-09-01T01:31:47.925Z,1004.15
2018-09-01T01:32:54.234Z,1004.18
2018-09-01T01:34:00.530Z,1004.13
2018-09-01T01:35:06.861Z,1004.08
2018-09-01T01:36:13.644Z,1004.12
2018-09-01T01:37:20.959Z,1004.14
2018-09-01T01:38:26.262Z,1004.07
2018-09-01T01:39:32.099Z,1004.10
2018-09-01T01:40:38.396Z,1004.08
2018-09-01T01:41:44.693Z,1004.09
2018-09-01T01:42:51.019Z,1004.04
2018-09-01T01:43:57.304Z,1004.13
2018-09-01T01:45:03.617Z,1004.14
2018-09-01T01:46:09.915Z,1004.14
2018-09-01T01:47:16.729Z,1004.15
2018-09-01T01:48:22.535Z,1004.11
2018-09-01T01:49:28.885Z,1004.10
2018-09-01T01:50:35.144Z,1004.13
2018-09-01T01:51:41.460Z,1004.07
2018-09-01T01:52:48.249Z,1004.12
2018-09-01T01:53:54.061Z,1004.11
2018-09-01T01:55:00.358Z,1004.10
2018-09-01T01:56:06.669Z,1004.13
2018-09-01T01:57:12.958Z,1004.14
2018-09-01T01:58:19.279Z,1004.14
2018-09-01T01:59:25.581Z,1004.15
2018-09-01T02:00:32.374Z,1004.16
2018-09-01T02:01:38.190Z,1004.11
2018-09-01T02:02:44.484Z,1004.12
2018-09-01T02:03:50.785Z,1004.10
2018-09-01T02:04:57.080Z,1004.10
2018-09-01T02:06:03.395Z,1004.09
2018-09-01T02:07:09.698Z,1004.09
2018-09-01T02:08:16.500Z,1004.14
2018-09-01T02:09:22.299Z,1004.08
2018-09-01T02:10:29.093Z,1004.10
2018-09-01T02:11:35.389Z,1004.13
2018-09-01T02:12:41.205Z,1004.17
2018-09-01T02:13:47.518Z,1004.15
2018-09-01T02:14:55.303Z,1004.16
2018-09-01T02:16:00.115Z,1004.20
2018-09-01T02:17:06.420Z,1004.22
2018-09-01T02:18:13.283Z,1004.22
2018-09-01T02:19:19.056Z,1004.27
2018-09-01T02:20:25.314Z,1004.21
2018-09-01T02:21:32.123Z,1004.30
2018-09-01T02:22:37.925Z,1004.25
2018-09-01T02:23:44.242Z,1004.30
2018-09-01T02:24:50.527Z,1004.26
2018-09-01T02:25:57.332Z,1004.27
2018-09-01T02:27:03.644Z,1004.29
2018-09-01T02:28:09.936Z,1004.34
2018-09-01T02:29:15.746Z,1004.36
2018-09-01T02:30:22.032Z,1004.39
2018-09-01T02:31:28.331Z,1004.35
2018-09-01T02:32:34.637Z,1004.34
2018-09-01T02:33:40.940Z,1004.35
2018-09-01T02:34:47.234Z,1004.38
2018-09-01T02:35:53.538Z,1004.42
2018-09-01T02:36:59.825Z,1004.44
2018-09-01T02:38:06.136Z,1004.40
2018-09-01T02:39:12.437Z,1004.36
2018-09-01T02:40:19.270Z,1004.30
2018-09-01T02:41:25.031Z,1004.27
2018-09-01T02:42:32.304Z,1004.33
2018-09-01T02:43:38.135Z,1004.33
2018-09-01T02:44:43.933Z,1004.35
2018-09-01T02:45:50.234Z,1004.36
2018-09-01T02:46:56.521Z,1004.41
2018-09-01T02:48:03.317Z,1004.41
2018-09-01T02:49:09.126Z,1004.42
2018-09-01T02:50:15.415Z,1004.45
2018-09-01T02:51:21.715Z,1004.46
2018-09-01T02:52:28.502Z,1004.50
2018-09-01T02:53:34.314Z,1004.52
2018-09-01T02:54:41.109Z,1004.51
2018-09-01T02:55:47.401Z,1004.54
2018-09-01T02:56:53.197Z,1004.69
2018-09-01T02:57:59.983Z,1004.63
2018-09-01T02:59:05.789Z,1004.68
2018-09-01T03:00:12.584Z,1004.66
2018-09-01T03:01:18.383Z,1004.75
2018-09-01T03:02:24.680Z,1004.76
2018-09-01T03:03:31.459Z,1004.77
2018-09-01T03:04:37.278Z,1004.74
2018-09-01T03:05:44.045Z,1004.72
2018-09-01T03:06:49.853Z,1004.65
2018-09-01T03:07:56.155Z,1004.65
2018-09-01T03:09:02.444Z,1004.72
2018-09-01T03:10:08.737Z,1004.72
2018-09-01T03:11:15.028Z,1004.72
2018-09-01T03:12:21.812Z,1004.77
2018-09-01T03:13:27.622Z,1004.69
2018-09-01T03:14:33.960Z,1004.74
2018-09-01T03:15:40.209Z,1004.76
2018-09-01T03:16:46.505Z,1004.74
2018-09-01T03:17:52.801Z,1004.76
2018-09-01T03:18:59.602Z,1004.77
2018-09-01T03:20:05.396Z,1004.79
2018-09-01T03:21:11.681Z,1004.79
2018-09-01T03:22:17.981Z,1004.84
2018-09-01T03:23:24.277Z,1004.85
2018-09-01T03:24:31.070Z,1004.83
2018-09-01T03:25:36.862Z,1004.89
2018-09-01T03:26:43.653Z,1004.88
2018-09-01T03:27:49.445Z,1004.90
2018-09-01T03:28:55.748Z,1004.91
2018-09-01T03:30:02.542Z,1004.89
2018-09-01T03:31:08.334Z,1004.94
2018-09-01T03:32:14.635Z,1004.94
2018-09-01T03:33:20.927Z,1004.97
2018-09-01T03:34:27.228Z,1005.03
2018-09-01T03:35:34.014Z,1004.95
2018-09-01T03:36:39.807Z,1004.94
2018-09-01T03:37:46.108Z,1005.01
2018-09-01T03:38:52.399Z,1005.04
2018-09-01T03:39:58.703Z,1005.03
2018-09-01T03:41:04.991Z,1004.99
2018-09-01T03:42:11.299Z,1005.02
2018-09-01T03:43:17.601Z,1004.95
2018-09-01T03:44:24.101Z,1004.95
2018-09-01T03:45:30.692Z,1004.89
2018-09-01T03:46:36.503Z,1004.85
2018-09-01T03:47:44.289Z,1004.89
2018-09-01T03:48:49.596Z,1004.83
2018-09-01T03:49:55.905Z,1004.93
2018-09-01T03:51:02.198Z,1004.88
2018-09-01T03:52:08.010Z,1004.90
2018-09-01T03:53:14.305Z,1004.89
2018-09-01T03:54:21.092Z,1004.92
2018-09-01T03:55:26.888Z,1004.90
2018-09-01T03:56:33.283Z,1004.89
2018-09-01T03:57:39.977Z,1004.86
2018-09-01T03:58:45.783Z,1004.89
2018-09-01T03:59:52.088Z,1004.87
2018-09-01T04:00:58.373Z,1004.94
2018-09-01T04:02:04.670Z,1004.90
2018-09-01T04:03:10.969Z,1004.85
2018-09-01T04:04:17.247Z,1004.87
2018-09-01T04:05:23.553Z,1004.84
2018-09-01T04:06:29.844Z,1004.85
2018-09-01T04:07:36.122Z,1004.84
2018-09-01T04:08:42.927Z,1004.89
2018-09-01T04:09:48.725Z,1004.84
2018-09-01T04:10:55.512Z,1004.92
2018-09-01T04:12:01.790Z,1004.91
2018-09-01T04:13:07.598Z,1004.88
2018-09-01T04:14:13.900Z,1004.90
2018-09-01T04:15:20.206Z,1004.89
2018-09-01T04:16:26.476Z,1004.94
2018-09-01T04:17:32.774Z,1004.93
2018-09-01T04:18:39.560Z,1004.86
2018-09-01T04:19:45.374Z,1004.90
2018-09-01T04:20:51.657Z,1004.93
2018-09-01T04:21:57.947Z,1004.93
2018-09-01T04:23:04.735Z,1004.89
2018-09-01T04:24:10.524Z,1004.90
2018-09-01T04:25:16.833Z,1004.89
2018-09-01T04:26:23.144Z,1004.91
2018-09-01T04:27:29.419Z,1004.91
2018-09-01T04:28:35.704Z,1004.88
2018-09-01T04:29:42.494Z,1004.93
2018-09-01T04:30:48.306Z,1004.91
2018-09-01T04:31:54.581Z,1004.91
2018-09-01T04:33:00.865Z,1004.95
2018-09-01T04:34:07.649Z,1005.00
2018-09-01T04:35:13.466Z,1004.98
2018-09-01T04:36:19.735Z,1005.05
2018-09-01T04:37:26.539Z,1005.09
2018-09-01T04:38:32.325Z,1005.02
2018-09-01T04:39:39.111Z,1005.11
2018-09-01T04:40:44.905Z,1005.05
2018-09-01T04:41:51.293Z,1005.06
2018-09-01T04:42:57.488Z,1005.11
2018-09-01T04:44:03.766Z,1005.12
2018-09-01T04:45:10.079Z,1005.15
2018-09-01T04:46:16.574Z,1005.16
2018-09-01T04:47:22.628Z,1005.17
2018-09-01T04:48:29.413Z,1005.21
2018-09-01T04:49:35.205Z,1005.25
2018-09-01T04:50:42.001Z,1005.19
2018-09-01T04:51:47.784Z,1005.25
2018-09-01T04:52:54.081Z,1005.28
2018-09-01T04:54:00.371Z,1005.32
2018-09-01T04:55:07.145Z,1005.33
2018-09-01T04:56:12.943Z,1005.38
2018-09-01T04:57:19.229Z,1005.37
2018-09-01T04:58:25.512Z,1005.40
2018-09-01T04:59:32.297Z,1005.36
2018-09-01T05:00:38.096Z,1005.41
2018-09-01T05:01:44.880Z,1005.33
2018-09-01T05:02:51.274Z,1005.31
2018-09-01T05:03:56.975Z,1005.37
2018-09-01T05:05:03.743Z,1005.36
2018-09-01T05:06:09.551Z,1005.32
2018-09-01T05:07:15.831Z,1005.34
2018-09-01T05:08:22.127Z,1005.27
2018-09-01T05:09:28.918Z,1005.30
2018-09-01T05:10:34.732Z,1005.33
2018-09-01T05:11:41.005Z,1005.32
2018-09-01T05:12:48.295Z,1005.34
2018-09-01T05:13:54.078Z,1005.31
2018-09-01T05:14:59.879Z,1005.37
2018-09-01T05:16:06.167Z,1005.32
2018-09-01T05:17:12.456Z,1005.31
2018-09-01T05:18:18.747Z,1005.33
2018-09-01T05:19:25.056Z,1005.39
2018-09-01T05:20:31.337Z,1005.38
2018-09-01T05:21:37.629Z,1005.43
2018-09-01T05:22:43.911Z,1005.40
2018-09-01T05:23:50.720Z,1005.40
2018-09-01T05:24:56.515Z,1005.41
2018-09-01T05:26:02.805Z,1005.38
2018-09-01T05:27:09.099Z,1005.34
2018-09-01T05:28:15.386Z,1005.36
2018-09-01T05:29:21.688Z,1005.40
2018-09-01T05:30:27.999Z,1005.30
2018-09-01T05:31:34.759Z,1005.34
2018-09-01T05:32:40.569Z,1005.36
2018-09-01T05:33:46.857Z,1005.34
2018-09-01T05:34:53.161Z,1005.39
2018-09-01T05:35:59.487Z,1005.35
2018-09-01T05:37:06.223Z,1005.36
2018-09-01T05:38:12.036Z,1005.39
2018-09-01T05:39:18.820Z,1005.38
2018-09-01T05:40:24.621Z,1005.35
2018-09-01T05:41:31.407Z,1005.37
2018-09-01T05:42:37.699Z,1005.28
2018-09-01T05:43:43.522Z,1005.42
2018-09-01T05:44:49.799Z,1005.34
2018-09-01T05:45:56.113Z,1005.33
2018-09-01T05:47:02.419Z,1005.32
2018-09-01T05:48:08.702Z,1005.33
2018-09-01T05:49:15.496Z,1005.38
2018-09-01T05:50:21.293Z,1005.39
2018-09-01T05:51:27.607Z,1005.39
2018-09-01T05:52:34.393Z,1005.43
2018-09-01T05:53:40.704Z,1005.42
2018-09-01T05:54:46.501Z,1005.36
2018-09-01T05:55:52.811Z,1005.37
2018-09-01T05:56:59.105Z,1005.35
2018-09-01T05:58:05.416Z,1005.43
2018-09-01T05:59:11.709Z,1005.39
2018-09-01T06:00:18.021Z,1005.38
2018-09-01T06:01:24.321Z,1005.36
2018-09-01T06:02:30.627Z,1005.43
2018-09-01T06:03:36.934Z,1005.44
2018-09-01T06:04:43.734Z,1005.53
2018-09-01T06:05:49.592Z,1005.41
2018-09-01T06:06:56.338Z,1005.42
2018-09-01T06:08:02.694Z,1005.41
2018-09-01T06:09:08.463Z,1005.36
2018-09-01T06:10:14.762Z,1005.45
2018-09-01T06:11:21.090Z,1005.41
2018-09-01T06:12:27.876Z,1005.38
2018-09-01T06:13:34.727Z,1005.38
2018-09-01T06:14:40.009Z,1005.42
2018-09-01T06:15:46.823Z,1005.40
2018-09-01T06:16:52.631Z,1005.36
2018-09-01T06:17:59.492Z,1005.39
2018-09-01T06:19:05.288Z,1005.38
2018-09-01T06:20:12.079Z,1005.44
2018-09-01T06:21:18.040Z,1005.45
2018-09-01T06:22:24.709Z,1005.52
2018-09-01T06:23:31.087Z,1005.48
2018-09-01T06:24:37.861Z,1005.53
2018-09-01T06:25:43.192Z,1005.45
2018-09-01T06:26:49.981Z,1005.50
2018-09-01T06:27:57.306Z,1005.48
2018-09-01T06:29:02.153Z,1005.49
2018-09-01T06:30:08.471Z,1005.45
2018-09-01T06:31:14.786Z,1005.54
2018-09-01T06:32:21.105Z,1005.44
2018-09-01T06:33:27.422Z,1005.44
2018-09-01T06:34:33.771Z,1005.47
2018-09-01T06:35:40.073Z,1005.51
2018-09-01T06:36:46.398Z,1005.49
2018-09-01T06:37:53.308Z,1005.58
2018-09-01T06:38:59.043Z,1005.56
2018-09-01T06:40:05.367Z,1005.53
2018-09-01T06:41:12.004Z,1005.60
2018-09-01T06:42:18.014Z,1005.61
2018-09-01T06:43:24.337Z,1005.60
2018-09-01T06:44:30.677Z,1005.59
2018-09-01T06:45:36.993Z,1005.65
2018-09-01T06:46:43.333Z,1005.61
2018-09-01T06:47:49.660Z,1005.53
2018-09-01T06:48:56.006Z,1005.60
2018-09-01T06:50:02.819Z,1005.65
2018-09-01T06:51:08.662Z,1005.67
2018-09-01T06:52:14.985Z,1005.72
2018-09-01T06:53:21.320Z,1005.69
2018-09-01T06:54:27.663Z,1005.70
2018-09-01T06:55:34.490Z,1005.67
2018-09-01T06:56:40.337Z,1005.70
2018-09-01T06:57:47.279Z,1005.69
2018-09-01T06:58:53.008Z,1005.70
2018-09-01T06:59:59.354Z,1005.67
2018-09-01T07:01:05.702Z,1005.76
2018-09-01T07:02:12.039Z,1005.66
2018-09-01T07:03:19.867Z,1005.66
2018-09-01T07:04:25.279Z,1005.69
2018-09-01T07:05:31.589Z,1005.59
2018-09-01T07:06:37.439Z,1005.63
2018-09-01T07:07:43.821Z,1005.62
2018-09-01T07:08:50.683Z,1005.71
2018-09-01T07:09:56.957Z,1005.62
2018-09-01T07:11:02.813Z,1005.68
2018-09-01T07:12:09.277Z,1005.60
2018-09-01T07:13:15.529Z,1005.58
2018-09-01T07:14:21.871Z,1005.68
2018-09-01T07:15:28.226Z,1005.75
2018-09-01T07:16:34.582Z,1005.70
2018-09-01T07:17:40.932Z,1005.75
2018-09-01T07:18:47.295Z,1005.70
2018-09-01T07:19:53.658Z,1005.74
2018-09-01T07:21:00.005Z,1005.79
2018-09-01T07:22:06.876Z,1005.75
2018-09-01T07:23:12.729Z,1005.81
2018-09-01T07:24:19.109Z,1005.80
2018-09-01T07:25:25.663Z,1005.77
2018-09-01T07:26:31.849Z,1005.76
2018-09-01T07:27:38.694Z,1005.85
2018-09-01T07:28:44.576Z,1005.80
2018-09-01T07:29:50.938Z,1005.82
2018-09-01T07:30:57.575Z,1005.85
2018-09-01T07:32:03.681Z,1005.83
2018-09-01T07:33:10.046Z,1005.96
2018-09-01T07:34:16.614Z,1005.86
2018-09-01T07:35:22.796Z,1005.87
2018-09-01T07:36:29.679Z,1005.88
2018-09-01T07:37:35.552Z,1005.88
2018-09-01T07:38:41.931Z,1005.92
2018-09-01T07:39:48.314Z,1005.93
2018-09-01T07:40:54.698Z,1005.93
2018-09-01T07:42:01.101Z,1006.02
2018-09-01T07:43:07.938Z,1006.00
2018-09-01T07:44:13.827Z,1006.07
2018-09-01T07:45:20.712Z,1006.11
2018-09-01T07:46:27.091Z,1006.07
2018-09-01T07:47:32.976Z,1006.20
2018-09-01T07:48:39.365Z,1006.18
2018-09-01T07:49:45.749Z,1006.21
2018-09-01T07:50:52.137Z,1006.20
2018-09-01T07:51:58.527Z,1006.22
2018-09-01T07:53:04.907Z,1006.26
2018-09-01T07:54:11.312Z,1006.16
2018-09-01T07:55:17.674Z,1006.20
2018-09-01T07:56:24.129Z,1006.22
2018-09-01T07:57:30.475Z,1006.19
2018-09-01T07:58:36.860Z,1006.16
2018-09-01T07:59:43.244Z,1006.23
2018-09-01T08:00:49.647Z,1006.23
2018-09-01T08:01:56.547Z,1006.23
2018-09-01T08:03:02.448Z,1006.24
2018-09-01T08:04:09.331Z,1006.17
2018-09-01T08:05:15.736Z,1006.25
2018-09-01T08:06:22.142Z,1006.24
2018-09-01T08:07:28.108Z,1006.28
2018-09-01T08:08:34.462Z,1006.30
2018-09-01T08:09:41.366Z,1006.29
2018-09-01T08:10:47.276Z,1006.30
2018-09-01T08:11:54.038Z,1006.31
2018-09-01T08:13:00.119Z,1006.36
2018-09-01T08:14:07.184Z,1006.36
2018-09-01T08:15:13.963Z,1006.38
2018-09-01T08:16:19.392Z,1006.39
2018-09-01T08:17:25.821Z,1006.40
2018-09-01T08:18:32.277Z,1006.42
2018-09-01T08:19:39.280Z,1006.41
2018-09-01T08:20:45.114Z,1006.46
2018-09-01T08:21:51.547Z,1006.49
2018-09-01T08:22:57.988Z,1006.43
2018-09-01T08:24:04.915Z,1006.46
2018-09-01T08:25:11.347Z,1006.45
2018-09-01T08:26:17.300Z,1006.46
2018-09-01T08:27:23.759Z,1006.43
2018-09-01T08:28:30.194Z,1006.38
2018-09-01T08:29:36.631Z,1006.41
2018-09-01T08:30:43.095Z,1006.39
2018-09-01T08:31:49.552Z,1006.41
2018-09-01T08:32:55.984Z,1006.29
2018-09-01T08:34:02.452Z,1006.26
2018-09-01T08:35:08.899Z,1006.32
2018-09-01T08:36:15.360Z,1006.33
2018-09-01T08:37:21.815Z,1006.32
2018-09-01T08:38:28.261Z,1006.29
2018-09-01T08:39:34.722Z,1006.36
2018-09-01T08:40:41.280Z,1006.37
2018-09-01T08:41:47.634Z,1006.32
2018-09-01T08:42:54.100Z,1006.39
2018-09-01T08:44:00.560Z,1006.46
2018-09-01T08:45:07.027Z,1006.41
2018-09-01T08:46:13.482Z,1006.45
2018-09-01T08:47:19.952Z,1006.42
2018-09-01T08:48:26.921Z,1006.40
2018-09-01T08:49:32.898Z,1006.43
2018-09-01T08:50:39.356Z,1006.52
2018-09-01T08:51:45.836Z,1006.44
2018-09-01T08:52:52.303Z,1006.44
2018-09-01T08:53:59.289Z,1006.47
2018-09-01T08:55:05.253Z,1006.51
2018-09-01T08:56:11.741Z,1006.50
2018-09-01T08:57:18.710Z,1006.48
2018-09-01T08:58:24.702Z,1006.52
2018-09-01T08:59:31.270Z,1006.54
2018-09-01T09:00:37.652Z,1006.50
2018-09-01T09:01:44.638Z,1006.60
2018-09-01T09:02:50.631Z,1006.55
2018-09-01T09:03:57.106Z,1006.48
2018-09-01T09:05:03.597Z,1006.47
2018-09-01T09:06:10.093Z,1006.49
2018-09-01T09:07:16.588Z,1006.51
2018-09-01T09:08:24.577Z,1006.52
2018-09-01T09:09:29.580Z,1006.50
2018-09-01T09:10:36.569Z,1006.58
2018-09-01T09:11:43.124Z,1006.48
2018-09-01T09:12:49.567Z,1006.51
2018-09-01T09:13:55.571Z,1006.47
2018-09-01T09:15:02.075Z,1006.42
2018-09-01T09:16:09.581Z,1006.42
2018-09-01T09:17:15.084Z,1006.39
2018-09-01T09:18:21.592Z,1006.38
2018-09-01T09:19:28.104Z,1006.39
2018-09-01T09:20:34.604Z,1006.39
2018-09-01T09:21:41.125Z,1006.41
2018-09-01T09:22:48.643Z,1006.37
2018-09-01T09:23:54.153Z,1006.34
2018-09-01T09:25:00.687Z,1006.36
2018-09-01T09:26:07.204Z,1006.29
2018-09-01T09:27:14.719Z,1006.39
2018-09-01T09:28:20.245Z,1006.41
2018-09-01T09:29:26.774Z,1006.39
2018-09-01T09:30:33.279Z,1006.34
2018-09-01T09:31:39.809Z,1006.37
2018-09-01T09:32:46.340Z,1006.34
2018-09-01T09:33:53.365Z,1006.32
2018-09-01T09:34:59.399Z,1006.25
2018-09-01T09:36:06.449Z,1006.27
2018-09-01T09:37:12.497Z,1006.30
2018-09-01T09:38:19.028Z,1006.37
2018-09-01T09:39:25.546Z,1006.33
2018-09-01T09:40:32.142Z,1006.38
2018-09-01T09:41:38.637Z,1006.29
2018-09-01T09:42:45.344Z,1006.36
2018-09-01T09:43:51.714Z,1006.31
2018-09-01T09:44:58.263Z,1006.32
2018-09-01T09:46:04.800Z,1006.30
2018-09-01T09:47:11.363Z,1006.28
2018-09-01T09:48:17.940Z,1006.35
2018-09-01T09:49:24.484Z,1006.24
2018-09-01T09:50:31.077Z,1006.27
2018-09-01T09:51:37.600Z,1006.27
2018-09-01T09:52:44.225Z,1006.31
2018-09-01T09:53:50.771Z,1006.29
2018-09-01T09:54:57.394Z,1006.27
2018-09-01T09:56:04.280Z,1006.28
2018-09-01T09:57:10.447Z,1006.23
2018-09-01T09:58:17.038Z,1006.25
2018-09-01T09:59:24.095Z,1006.26
2018-09-01T10:00:30.163Z,1006.24
2018-09-01T10:01:37.236Z,1006.28
2018-09-01T10:02:43.323Z,1006.17
2018-09-01T10:03:49.896Z,1006.18
2018-09-01T10:04:56.510Z,1006.19
2018-09-01T10:06:03.267Z,1006.15
2018-09-01T10:07:09.655Z,1006.10
2018-09-01T10:08:16.244Z,1006.11
2018-09-01T10:09:22.837Z,1006.11
2018-09-01T10:10:29.419Z,1006.09
2018-09-01T10:11:36.504Z,1006.05
2018-09-01T10:12:42.597Z,1005.97
2018-09-01T10:13:49.229Z,1005.95
2018-09-01T10:14:55.800Z,1005.99
2018-09-01T10:16:02.396Z,1006.09
2018-09-01T10:17:09.008Z,1005.91
2018-09-01T10:18:15.613Z,1005.97
2018-09-01T10:19:22.723Z,1005.90
2018-09-01T10:20:28.917Z,1005.90
2018-09-01T10:21:35.457Z,1005.89
2018-09-01T10:22:42.065Z,1005.86
2018-09-01T10:23:49.194Z,1005.93
2018-09-01T10:24:55.324Z,1005.84
2018-09-01T10:26:01.940Z,1005.93
2018-09-01T10:27:08.613Z,1005.88
2018-09-01T10:28:15.198Z,1005.90
2018-09-01T10:29:21.829Z,1005.82
2018-09-01T10:30:28.463Z,1005.84
2018-09-01T10:31:35.282Z,1005.82
2018-09-01T10:32:41.719Z,1005.84
2018-09-01T10:33:49.377Z,1005.83
2018-09-01T10:34:55.021Z,1005.86
2018-09-01T10:36:01.675Z,1005.80
2018-09-01T10:37:08.822Z,1005.87
2018-09-01T10:38:15.494Z,1005.86
2018-09-01T10:39:21.666Z,1005.84
2018-09-01T10:40:28.351Z,1005.79
2018-09-01T10:41:35.522Z,1005.84
2018-09-01T10:42:41.711Z,1005.81
2018-09-01T10:43:48.901Z,1005.76
2018-09-01T10:44:55.083Z,1005.73
2018-09-01T10:46:01.767Z,1005.75
2018-09-01T10:47:08.947Z,1005.79
2018-09-01T10:48:15.148Z,1005.75
2018-09-01T10:49:21.825Z,1005.73
2018-09-01T10:50:28.985Z,1005.73
2018-09-01T10:51:35.146Z,1005.70
2018-09-01T10:52:41.801Z,1005.75
2018-09-01T10:53:48.469Z,1005.64
2018-09-01T10:54:55.620Z,1005.75
2018-09-01T10:56:01.751Z,1005.70
2018-09-01T10:57:08.414Z,1005.67
2018-09-01T10:58:15.046Z,1005.67
2018-09-01T10:59:21.752Z,1005.65
2018-09-01T11:00:28.335Z,1005.68
2018-09-01T11:01:34.967Z,1005.72
2018-09-01T11:02:41.636Z,1005.63
2018-09-01T11:03:48.750Z,1005.61
2018-09-01T11:04:54.891Z,1005.60
2018-09-01T11:06:01.527Z,1005.59
2018-09-01T11:07:08.279Z,1005.52
2018-09-01T11:08:14.820Z,1005.50
2018-09-01T11:09:21.467Z,1005.61
2018-09-01T11:10:28.112Z,1005.58
2018-09-01T11:11:34.752Z,1005.54
2018-09-01T11:12:41.413Z,1005.57
2018-09-01T11:13:48.086Z,1005.56
2018-09-01T11:14:54.727Z,1005.52
2018-09-01T11:16:01.373Z,1005.53
2018-09-01T11:17:08.032Z,1005.46
2018-09-01T11:18:14.696Z,1005.50
2018-09-01T11:19:21.385Z,1005.46
2018-09-01T11:20:28.054Z,1005.45
2018-09-01T11:21:34.795Z,1005.44
2018-09-01T11:22:41.582Z,1005.49
2018-09-01T11:23:48.419Z,1005.41
2018-09-01T11:24:55.317Z,1005.36
2018-09-01T11:26:02.294Z,1005.42
2018-09-01T11:27:09.248Z,1005.47
2018-09-01T11:28:16.260Z,1005.41
2018-09-01T11:29:23.292Z,1005.36
2018-09-01T11:30:30.375Z,1005.39
2018-09-01T11:31:37.431Z,1005.37
2018-09-01T11:32:45.566Z,1005.38
2018-09-01T11:33:51.731Z,1005.37
2018-09-01T11:34:58.940Z,1005.31
2018-09-01T11:36:06.660Z,1005.30
2018-09-01T11:37:13.373Z,1005.34
2018-09-01T11:38:20.537Z,1005.32
2018-09-01T11:39:27.727Z,1005.28
2018-09-01T11:40:34.956Z,1005.22
2018-09-01T11:41:42.275Z,1005.31
2018-09-01T11:42:49.564Z,1005.31
2018-09-01T11:43:56.725Z,1005.29
2018-09-01T11:45:04.016Z,1005.27
2018-09-01T11:46:11.319Z,1005.21
2018-09-01T11:47:18.650Z,1005.22
2018-09-01T11:48:25.984Z,1005.27
2018-09-01T11:49:33.332Z,1005.18
2018-09-01T11:50:40.686Z,1005.13
2018-09-01T11:51:48.055Z,1005.11
2018-09-01T11:52:55.911Z,1005.08
2018-09-01T11:54:03.804Z,1005.10
2018-09-01T11:55:10.225Z,1005.02
2018-09-01T11:56:17.623Z,1005.00
2018-09-01T11:57:25.041Z,1005.02
2018-09-01T11:58:32.487Z,1005.14
2018-09-01T11:59:40.415Z,1005.08
2018-09-01T12:00:47.345Z,1005.10
2018-09-01T12:01:54.794Z,1005.09
2018-09-01T12:03:02.257Z,1005.13
2018-09-01T12:04:09.707Z,1005.08
2018-09-01T12:05:17.175Z,1005.12
2018-09-01T12:06:24.639Z,1005.09
2018-09-01T12:07:32.097Z,1005.04
2018-09-01T12:08:39.581Z,1005.02
2018-09-01T12:09:47.067Z,1005.03
2018-09-01T12:10:55.039Z,1005.09
2018-09-01T12:12:01.995Z,1005.10
2018-09-01T12:13:09.349Z,1005.12
2018-09-01T12:14:17.238Z,1005.10
2018-09-01T12:15:24.280Z,1005.02
2018-09-01T12:16:31.614Z,1005.07
2018-09-01T12:17:39.071Z,1005.05
2018-09-01T12:18:46.533Z,1005.03
2018-09-01T12:19:54.020Z,1005.07
2018-09-01T12:21:01.506Z,1005.10
2018-09-01T12:22:09.042Z,1005.10
2018-09-01T12:23:16.481Z,1005.06
2018-09-01T12:24:23.980Z,1005.04
2018-09-01T12:25:31.988Z,1005.04
2018-09-01T12:26:39.514Z,1005.05
2018-09-01T12:27:46.536Z,1005.00
2018-09-01T12:28:54.074Z,1005.00
2018-09-01T12:30:01.607Z,1005.07
2018-09-01T12:31:09.157Z,1005.04
2018-09-01T12:32:17.195Z,1005.09
2018-09-01T12:33:24.263Z,1005.04
2018-09-01T12:34:31.837Z,1005.05
2018-09-01T12:35:39.400Z,1005.03
2018-09-01T12:36:46.948Z,1004.97
2018-09-01T12:37:54.516Z,1005.01
2018-09-01T12:39:02.581Z,1004.94
2018-09-01T12:40:09.656Z,1004.96
2018-09-01T12:41:17.221Z,1004.99
2018-09-01T12:42:24.781Z,1004.99
2018-09-01T12:43:32.347Z,1004.94
2018-09-01T12:44:39.904Z,1005.05
2018-09-01T12:45:47.465Z,1005.07
2018-09-01T12:46:55.042Z,1004.94
2018-09-01T12:48:02.614Z,1005.02
2018-09-01T12:49:10.179Z,1004.99
2018-09-01T12:50:17.736Z,1004.98
2018-09-01T12:51:25.299Z,1004.90
2018-09-01T12:52:32.839Z,1004.90
2018-09-01T12:53:40.386Z,1004.85
2018-09-01T12:54:48.434Z,1004.85
2018-09-01T12:55:55.491Z,1004.85
2018-09-01T12:57:03.030Z,1004.80
2018-09-01T12:58:10.590Z,1004.79
2018-09-01T12:59:18.152Z,1004.94
2018-09-01T13:00:26.271Z,1004.88
2018-09-01T13:01:33.264Z,1004.85
2018-09-01T13:02:40.828Z,1004.91
2018-09-01T13:03:48.369Z,1004.86
2018-09-01T13:04:55.937Z,1004.88
2018-09-01T13:06:03.472Z,1004.81
2018-09-01T13:07:11.016Z,1004.84
2018-09-01T13:08:19.037Z,1004.79
2018-09-01T13:09:26.083Z,1004.82
2018-09-01T13:10:33.608Z,1004.82
2018-09-01T13:11:41.118Z,1004.80
2018-09-01T13:12:48.640Z,1004.78
2018-09-01T13:13:56.280Z,1004.73
2018-09-01T13:15:03.687Z,1004.72
2018-09-01T13:16:11.194Z,1004.73
2018-09-01T13:17:18.718Z,1004.74
2018-09-01T13:18:26.741Z,1004.74
2018-09-01T13:19:33.754Z,1004.70
2018-09-01T13:20:41.269Z,1004.72
2018-09-01T13:21:48.776Z,1004.71
2018-09-01T13:22:56.290Z,1004.72
2018-09-01T13:24:03.795Z,1004.71
2018-09-01T13:25:11.345Z,1004.64